This is the latest recevied weather packets stored in our database for station/object SQ9RHX-13. If no packets are shown the sender has not sent any weather packets the latest 10 day(s).
| Time | Temp. | Humidity | Pressure | Rain* | Wind** | Luminosity | Snow |
|---|---|---|---|---|---|---|---|
| 1777766403 | 13.89° C | 54% | 1022 hPa | 0 mm | - | 0 W/m² | - |
| 1777766102 | 13.89° C | 53% | 1021.9 hPa | 0 mm | - | 0 W/m² | - |
| 1777765803 | 13.89° C | 53% | 1021.9 hPa | 0 mm | - | 0 W/m² | - |
| 1777765502 | 14.44° C | 52% | 1022 hPa | 0 mm | - | 0 W/m² | - |
| 1777765203 | 14.44° C | 52% | 1022.2 hPa | 0 mm | - | 0 W/m² | - |
| 1777764902 | 13.89° C | 52% | 1022 hPa | 0 mm | - | 0 W/m² | - |
| 1777764603 | 13.89° C | 53% | 1022.1 hPa | 0 mm | - | 0 W/m² | - |
| 1777764304 | 13.33° C | 54% | 1022.1 hPa | 0 mm | - | 0 W/m² | - |
| 1777764005 | 13.33° C | 54% | 1022 hPa | 0 mm | - | 0 W/m² | - |
| 1777763703 | 13.89° C | 54% | 1021.9 hPa | 0 mm | - | 0 W/m² | - |
| 1777763402 | 13.89° C | 54% | 1022.3 hPa | 0 mm | - | 0 W/m² | - |
| 1777763106 | 13.89° C | 55% | 1022.3 hPa | 0 mm | - | 0 W/m² | - |
| 1777762803 | 13.33° C | 57% | 1022.3 hPa | 0 mm | - | 0 W/m² | - |
| 1777762503 | 12.22° C | 59% | 1022.3 hPa | 0 mm | - | 0 W/m² | - |
| 1777762203 | 11.11° C | 64% | 1022.3 hPa | 0 mm | - | 0 W/m² | - |
| 1777761902 | 11.11° C | 64% | 1022.6 hPa | 0 mm | - | 0 W/m² | - |
| 1777761603 | 11.67° C | 64% | 1022.4 hPa | 0 mm | - | 0 W/m² | - |
| 1777761303 | 11.11° C | 65% | 1022.5 hPa | 0 mm | - | 0 W/m² | - |
| 1777761003 | 9.44° C | 69% | 1022.6 hPa | 0 mm | - | 0 W/m² | - |
| 1777760704 | 8.89° C | 78% | 1022.5 hPa | 0 mm | - | 0 W/m² | - |
| 1777760404 | 8.33° C | 78% | 1022.6 hPa | 0 mm | - | 0 W/m² | - |
| 1777760102 | 8.89° C | 77% | 1022.5 hPa | 0 mm | - | 0 W/m² | - |
| 1777759803 | 8.89° C | 76% | 1022.3 hPa | 0 mm | - | 0 W/m² | - |
| 1777759502 | 8.89° C | 77% | 1022.4 hPa | 0 mm | - | 0 W/m² | - |
| 1777759205 | 8.89° C | 76% | 1022.4 hPa | 0 mm | - | 0 W/m² | - |
* Rain latest hour (hover to see other rain measurements)
** Current wind speed in m/s (hover to see current wind gust speed)